EZY143C EGGD-EGPF
Flight info
| Callsign | EZY143C |
|---|---|
| Flight time | 1h 6m |
| Altitude | 26000 |
| Route | BCN P69 DIZIM DCT KISWO/N0385F270 DCT AVTIC DCT ANJAK/N0390F280 N38 NOKIN UP16 RIBEL DCT ASLIB |
| Aircraft | A320/M-SDE2E3FGHIJ1RWXYZ/LB1 |
Departure
| Time | 2026-05-05 18:56 |
|---|---|
| Airport | Bristol Airport (EGGD) |
Arrival
| Time | 2026-05-05 20:02 |
|---|---|
| Airport | Glasgow Airport (EGPF) |
| Time | Latitude | Longitude | Altitude | Speed | Heading |
|---|---|---|---|---|---|
| 2026-05-05 18:31 | 51.38550 | -2.71017 | 612 ft | 0 kts | 356° |
| 2026-05-05 18:49 | 51.38544 | -2.71017 | 612 ft | 4 kts | 356° |
| 2026-05-05 18:49 | 51.38517 | -2.71014 | 626 ft | 4 kts | 356° |
| 2026-05-05 18:49 | 51.38494 | -2.71012 | 625 ft | 3 kts | 355° |
| 2026-05-05 18:50 | 51.38471 | -2.70999 | 627 ft | 4 kts | 308° |
| 2026-05-05 18:50 | 51.38462 | -2.70964 | 614 ft | 2 kts | 266° |
| 2026-05-05 18:50 | 51.38462 | -2.70962 | 614 ft | 0 kts | 266° |
| 2026-05-05 18:52 | 51.38462 | -2.70964 | 614 ft | 2 kts | 266° |
| 2026-05-05 18:52 | 51.38459 | -2.71038 | 620 ft | 9 kts | 266° |
| 2026-05-05 18:52 | 51.38455 | -2.71171 | 618 ft | 14 kts | 267° |
| 2026-05-05 18:53 | 51.38449 | -2.71359 | 616 ft | 21 kts | 266° |
| 2026-05-05 18:53 | 51.38438 | -2.71647 | 613 ft | 26 kts | 265° |
| 2026-05-05 18:53 | 51.38431 | -2.71969 | 606 ft | 32 kts | 270° |
| 2026-05-05 18:53 | 51.38421 | -2.72277 | 612 ft | 27 kts | 266° |
| 2026-05-05 18:54 | 51.38409 | -2.72572 | 619 ft | 27 kts | 266° |
| 2026-05-05 18:54 | 51.38398 | -2.72869 | 615 ft | 27 kts | 267° |
| 2026-05-05 18:54 | 51.38388 | -2.73153 | 615 ft | 19 kts | 264° |
| 2026-05-05 18:54 | 51.38351 | -2.73318 | 624 ft | 15 kts | 220° |
| 2026-05-05 18:55 | 51.38276 | -2.73341 | 621 ft | 6 kts | 176° |
| 2026-05-05 18:55 | 51.38229 | -2.73296 | 633 ft | 12 kts | 128° |
| 2026-05-05 18:55 | 51.38218 | -2.73213 | 629 ft | 0 kts | 88° |
| 2026-05-05 18:55 | 51.38222 | -2.73100 | 629 ft | 37 kts | 86° |
| 2026-05-05 18:56 | 51.38256 | -2.72236 | 631 ft | 115 kts | 86° |
| 2026-05-05 18:56 | 51.38320 | -2.70637 | 740 ft | 161 kts | 86° |
| 2026-05-05 18:56 | 51.38359 | -2.68809 | 1493 ft | 168 kts | 85° |
| 2026-05-05 18:56 | 51.38391 | -2.66880 | 2134 ft | 180 kts | 84° |
| 2026-05-05 18:57 | 51.38435 | -2.64791 | 2577 ft | 194 kts | 84° |
| 2026-05-05 18:57 | 51.38509 | -2.62568 | 3045 ft | 208 kts | 83° |
| 2026-05-05 18:57 | 51.38612 | -2.60157 | 3494 ft | 227 kts | 83° |
| 2026-05-05 18:57 | 51.38724 | -2.57537 | 4039 ft | 244 kts | 83° |
| 2026-05-05 18:58 | 51.38963 | -2.54780 | 4666 ft | 255 kts | 68° |
| 2026-05-05 18:58 | 51.40004 | -2.52502 | 5399 ft | 258 kts | 33° |
| 2026-05-05 18:58 | 51.41692 | -2.51597 | 6237 ft | 261 kts | 0° |
| 2026-05-05 18:58 | 51.43443 | -2.52384 | 6995 ft | 269 kts | 327° |
| 2026-05-05 18:59 | 51.44658 | -2.54660 | 7786 ft | 275 kts | 294° |
| 2026-05-05 18:59 | 51.45252 | -2.57591 | 8652 ft | 278 kts | 289° |
| 2026-05-05 18:59 | 51.45841 | -2.60567 | 9490 ft | 282 kts | 291° |
| 2026-05-05 18:59 | 51.46652 | -2.63421 | 10303 ft | 284 kts | 301° |
| 2026-05-05 19:00 | 51.47733 | -2.66202 | 10625 ft | 305 kts | 304° |
| 2026-05-05 19:00 | 51.48983 | -2.69074 | 11061 ft | 319 kts | 306° |
| 2026-05-05 19:00 | 51.50284 | -2.72004 | 11747 ft | 325 kts | 305° |
| 2026-05-05 19:00 | 51.51592 | -2.74990 | 12486 ft | 329 kts | 304° |
| 2026-05-05 19:01 | 51.52878 | -2.77988 | 13216 ft | 332 kts | 304° |
| 2026-05-05 19:01 | 51.54192 | -2.81120 | 13933 ft | 336 kts | 303° |
| 2026-05-05 19:01 | 51.55471 | -2.84222 | 14557 ft | 339 kts | 303° |
| 2026-05-05 19:01 | 51.56770 | -2.87407 | 15190 ft | 342 kts | 302° |
| 2026-05-05 19:02 | 51.58079 | -2.90627 | 15831 ft | 346 kts | 302° |
| 2026-05-05 19:02 | 51.59417 | -2.93919 | 16462 ft | 349 kts | 302° |
| 2026-05-05 19:02 | 51.60737 | -2.97166 | 17066 ft | 353 kts | 302° |
| 2026-05-05 19:02 | 51.62088 | -3.00485 | 17679 ft | 357 kts | 302° |
| 2026-05-05 19:03 | 51.63457 | -3.03838 | 18287 ft | 360 kts | 302° |
| 2026-05-05 19:03 | 51.64836 | -3.07219 | 18809 ft | 363 kts | 302° |
| 2026-05-05 19:03 | 51.66226 | -3.10640 | 19343 ft | 366 kts | 302° |
| 2026-05-05 19:03 | 51.67619 | -3.14085 | 19889 ft | 369 kts | 302° |
| 2026-05-05 19:04 | 51.69022 | -3.17532 | 20411 ft | 371 kts | 304° |
| 2026-05-05 19:04 | 51.70753 | -3.20645 | 20911 ft | 377 kts | 318° |
| 2026-05-05 19:04 | 51.72942 | -3.23019 | 21409 ft | 382 kts | 332° |
| 2026-05-05 19:04 | 51.75459 | -3.24467 | 21899 ft | 389 kts | 346° |
| 2026-05-05 19:05 | 51.78168 | -3.24847 | 22379 ft | 395 kts | 1° |
| 2026-05-05 19:05 | 51.80908 | -3.24291 | 22844 ft | 399 kts | 7° |
| 2026-05-05 19:05 | 51.83667 | -3.23603 | 23321 ft | 402 kts | 7° |
| 2026-05-05 19:05 | 51.86443 | -3.22901 | 23753 ft | 405 kts | 7° |
| 2026-05-05 19:06 | 51.89238 | -3.22195 | 24160 ft | 407 kts | 7° |
| 2026-05-05 19:06 | 51.92044 | -3.21493 | 24572 ft | 409 kts | 7° |
| 2026-05-05 19:06 | 51.94864 | -3.20796 | 24983 ft | 411 kts | 7° |
| 2026-05-05 19:06 | 51.97697 | -3.20100 | 25371 ft | 413 kts | 7° |
| 2026-05-05 19:07 | 52.00540 | -3.19401 | 25787 ft | 414 kts | 7° |
| 2026-05-05 19:07 | 52.03392 | -3.18702 | 25979 ft | 414 kts | 6° |
| 2026-05-05 19:07 | 52.06216 | -3.18368 | 26014 ft | 399 kts | 1° |
| 2026-05-05 19:07 | 52.08960 | -3.18154 | 26017 ft | 392 kts | 1° |
| 2026-05-05 19:08 | 52.11673 | -3.17943 | 26026 ft | 393 kts | 1° |
| 2026-05-05 19:08 | 52.14442 | -3.17733 | 26137 ft | 404 kts | 1° |
| 2026-05-05 19:08 | 52.17283 | -3.17517 | 26300 ft | 412 kts | 1° |
| 2026-05-05 19:08 | 52.20160 | -3.17301 | 26661 ft | 414 kts | 1° |
| 2026-05-05 19:09 | 52.23037 | -3.17085 | 27136 ft | 414 kts | 1° |
| 2026-05-05 19:09 | 52.25910 | -3.16865 | 27668 ft | 412 kts | 1° |
| 2026-05-05 19:09 | 52.28763 | -3.16646 | 28200 ft | 410 kts | 1° |
| 2026-05-05 19:09 | 52.31615 | -3.16426 | 28728 ft | 409 kts | 1° |
| 2026-05-05 19:10 | 52.34447 | -3.16205 | 29259 ft | 407 kts | 1° |
| 2026-05-05 19:10 | 52.37265 | -3.15985 | 29794 ft | 405 kts | 1° |
| 2026-05-05 19:10 | 52.40081 | -3.15765 | 30015 ft | 405 kts | 1° |
| 2026-05-05 19:10 | 52.42895 | -3.15546 | 30025 ft | 404 kts | 1° |
| 2026-05-05 19:11 | 52.48512 | -3.15109 | 30027 ft | 404 kts | 1° |
| 2026-05-05 19:11 | 52.54145 | -3.14666 | 30030 ft | 405 kts | 1° |
| 2026-05-05 19:12 | 52.59781 | -3.14215 | 30027 ft | 406 kts | 1° |
| 2026-05-05 19:12 | 52.65430 | -3.13771 | 30030 ft | 406 kts | 1° |
| 2026-05-05 19:13 | 52.71064 | -3.13002 | 30024 ft | 408 kts | 11° |
| 2026-05-05 19:13 | 52.76382 | -3.09720 | 30021 ft | 410 kts | 24° |
| 2026-05-05 19:14 | 52.81537 | -3.05663 | 30009 ft | 411 kts | 24° |
| 2026-05-05 19:14 | 52.86704 | -3.01624 | 30014 ft | 411 kts | 24° |
| 2026-05-05 19:15 | 52.91964 | -2.97898 | 30011 ft | 411 kts | 18° |
| 2026-05-05 19:15 | 52.97299 | -2.94659 | 30032 ft | 411 kts | 19° |
| 2026-05-05 19:16 | 53.02673 | -2.91367 | 30029 ft | 412 kts | 19° |
| 2026-05-05 19:16 | 53.08091 | -2.88039 | 30037 ft | 413 kts | 19° |
| 2026-05-05 19:17 | 53.13451 | -2.84725 | 30038 ft | 414 kts | 19° |
| 2026-05-05 19:17 | 53.18857 | -2.81371 | 30040 ft | 415 kts | 19° |
| 2026-05-05 19:18 | 53.24280 | -2.77997 | 30040 ft | 416 kts | 19° |
| 2026-05-05 19:18 | 53.29706 | -2.74624 | 30044 ft | 417 kts | 19° |
| 2026-05-05 19:19 | 53.35140 | -2.71232 | 30043 ft | 417 kts | 19° |
| 2026-05-05 19:19 | 53.40571 | -2.67823 | 30040 ft | 417 kts | 19° |
| 2026-05-05 19:20 | 53.46012 | -2.64415 | 30037 ft | 418 kts | 19° |
| 2026-05-05 19:20 | 53.51456 | -2.60999 | 30029 ft | 418 kts | 19° |
| 2026-05-05 19:21 | 53.56906 | -2.57557 | 30021 ft | 418 kts | 19° |
| 2026-05-05 19:21 | 53.62350 | -2.54102 | 30019 ft | 419 kts | 19° |
| 2026-05-05 19:22 | 53.67816 | -2.50645 | 30028 ft | 419 kts | 19° |
| 2026-05-05 19:22 | 53.73281 | -2.47167 | 30027 ft | 420 kts | 19° |
| 2026-05-05 19:23 | 53.78721 | -2.43688 | 30027 ft | 421 kts | 19° |
| 2026-05-05 19:23 | 53.84207 | -2.40183 | 30029 ft | 422 kts | 18° |
| 2026-05-05 19:24 | 53.89700 | -2.36667 | 30037 ft | 422 kts | 19° |
| 2026-05-05 19:24 | 53.95200 | -2.33136 | 30042 ft | 423 kts | 17° |
| 2026-05-05 19:25 | 53.98034 | -2.31928 | 30045 ft | 419 kts | 5° |
| 2026-05-05 19:25 | 54.00901 | -2.31633 | 30047 ft | 416 kts | 354° |
| 2026-05-05 19:25 | 54.03753 | -2.32223 | 30044 ft | 411 kts | 343° |
| 2026-05-05 19:25 | 54.06470 | -2.33672 | 30041 ft | 407 kts | 333° |
| 2026-05-05 19:26 | 54.11445 | -2.38162 | 30048 ft | 405 kts | 327° |
| 2026-05-05 19:26 | 54.16382 | -2.42800 | 30049 ft | 406 kts | 328° |
| 2026-05-05 19:27 | 54.20492 | -2.46662 | 30059 ft | 405 kts | 327° |
| 2026-05-05 19:27 | 54.25434 | -2.51321 | 30068 ft | 405 kts | 327° |
| 2026-05-05 19:28 | 54.30364 | -2.55986 | 30071 ft | 405 kts | 327° |
| 2026-05-05 19:28 | 54.35288 | -2.60668 | 30079 ft | 404 kts | 328° |
| 2026-05-05 19:29 | 54.40200 | -2.65335 | 30080 ft | 403 kts | 328° |
| 2026-05-05 19:29 | 54.45098 | -2.70016 | 30080 ft | 403 kts | 327° |
| 2026-05-05 19:30 | 54.49990 | -2.74702 | 30085 ft | 402 kts | 328° |
| 2026-05-05 19:30 | 54.54868 | -2.79381 | 30080 ft | 401 kts | 328° |
| 2026-05-05 19:31 | 54.59735 | -2.84068 | 30089 ft | 401 kts | 328° |
| 2026-05-05 19:31 | 54.64656 | -2.88823 | 30077 ft | 415 kts | 328° |
| 2026-05-05 19:32 | 54.69762 | -2.93769 | 30069 ft | 428 kts | 328° |
| 2026-05-05 19:32 | 54.74958 | -2.98803 | 30072 ft | 429 kts | 328° |
| 2026-05-05 19:33 | 54.80165 | -3.03878 | 30069 ft | 429 kts | 328° |
| 2026-05-05 19:33 | 54.85370 | -3.08960 | 30076 ft | 429 kts | 328° |
| 2026-05-05 19:34 | 54.90571 | -3.14060 | 30078 ft | 429 kts | 328° |
| 2026-05-05 19:35 | 54.98356 | -3.21714 | 30086 ft | 428 kts | 328° |
| 2026-05-05 19:35 | 55.03548 | -3.26826 | 30082 ft | 428 kts | 327° |
| 2026-05-05 19:36 | 55.08732 | -3.31960 | 30088 ft | 428 kts | 327° |
| 2026-05-05 19:36 | 55.13912 | -3.37101 | 30064 ft | 428 kts | 327° |
| 2026-05-05 19:36 | 55.16486 | -3.39661 | 29233 ft | 421 kts | 327° |
| 2026-05-05 19:37 | 55.18999 | -3.42157 | 28326 ft | 411 kts | 327° |
| 2026-05-05 19:37 | 55.21462 | -3.44608 | 27452 ft | 403 kts | 327° |
| 2026-05-05 19:37 | 55.23867 | -3.47012 | 26694 ft | 393 kts | 327° |
| 2026-05-05 19:37 | 55.26211 | -3.49364 | 25954 ft | 383 kts | 327° |
| 2026-05-05 19:38 | 55.28499 | -3.51661 | 25235 ft | 375 kts | 327° |
| 2026-05-05 19:38 | 55.30738 | -3.53915 | 24535 ft | 367 kts | 327° |
| 2026-05-05 19:38 | 55.32933 | -3.56128 | 23847 ft | 360 kts | 327° |
| 2026-05-05 19:38 | 55.35091 | -3.58297 | 23078 ft | 354 kts | 327° |
| 2026-05-05 19:39 | 55.37217 | -3.60437 | 22286 ft | 349 kts | 327° |
| 2026-05-05 19:39 | 55.39309 | -3.62546 | 21517 ft | 345 kts | 327° |
| 2026-05-05 19:39 | 55.41350 | -3.64608 | 20761 ft | 341 kts | 327° |
| 2026-05-05 19:39 | 55.43395 | -3.66675 | 20037 ft | 337 kts | 327° |
| 2026-05-05 19:40 | 55.45411 | -3.68715 | 19327 ft | 333 kts | 327° |
| 2026-05-05 19:40 | 55.47410 | -3.70742 | 18627 ft | 329 kts | 327° |
| 2026-05-05 19:40 | 55.49384 | -3.72751 | 17864 ft | 326 kts | 327° |
| 2026-05-05 19:40 | 55.51339 | -3.74742 | 17085 ft | 323 kts | 327° |
| 2026-05-05 19:41 | 55.53279 | -3.76716 | 16325 ft | 321 kts | 327° |
| 2026-05-05 19:41 | 55.55202 | -3.78675 | 15580 ft | 318 kts | 327° |
| 2026-05-05 19:41 | 55.57111 | -3.80622 | 14859 ft | 316 kts | 328° |
| 2026-05-05 19:41 | 55.59007 | -3.82559 | 14146 ft | 313 kts | 328° |
| 2026-05-05 19:42 | 55.60890 | -3.84482 | 13385 ft | 311 kts | 328° |
| 2026-05-05 19:42 | 55.62749 | -3.86384 | 12711 ft | 305 kts | 328° |
| 2026-05-05 19:42 | 55.64544 | -3.88224 | 12411 ft | 289 kts | 328° |
| 2026-05-05 19:42 | 55.66240 | -3.89962 | 12130 ft | 274 kts | 328° |
| 2026-05-05 19:43 | 55.67850 | -3.91611 | 11868 ft | 260 kts | 328° |
| 2026-05-05 19:43 | 55.69378 | -3.93177 | 11613 ft | 248 kts | 328° |
| 2026-05-05 19:43 | 55.70900 | -3.94469 | 11362 ft | 243 kts | 344° |
| 2026-05-05 19:43 | 55.72585 | -3.94484 | 11101 ft | 247 kts | 12° |
| 2026-05-05 19:44 | 55.74095 | -3.93029 | 10855 ft | 252 kts | 41° |
| 2026-05-05 19:44 | 55.75037 | -3.90402 | 10606 ft | 258 kts | 71° |
| 2026-05-05 19:44 | 55.75131 | -3.87234 | 10358 ft | 261 kts | 103° |
| 2026-05-05 19:44 | 55.74317 | -3.84389 | 10118 ft | 261 kts | 135° |
| 2026-05-05 19:45 | 55.72857 | -3.82539 | 9967 ft | 260 kts | 152° |
| 2026-05-05 19:45 | 55.71279 | -3.80962 | 9826 ft | 261 kts | 153° |
| 2026-05-05 19:45 | 55.69700 | -3.79386 | 9687 ft | 260 kts | 152° |
| 2026-05-05 19:45 | 55.68128 | -3.77809 | 9557 ft | 259 kts | 152° |
| 2026-05-05 19:46 | 55.66500 | -3.76511 | 9408 ft | 255 kts | 172° |
| 2026-05-05 19:46 | 55.64796 | -3.76625 | 9270 ft | 246 kts | 202° |
| 2026-05-05 19:46 | 55.63346 | -3.78151 | 9135 ft | 238 kts | 230° |
| 2026-05-05 19:46 | 55.62507 | -3.80555 | 9001 ft | 231 kts | 256° |
| 2026-05-05 19:47 | 55.62346 | -3.83337 | 8752 ft | 230 kts | 280° |
| 2026-05-05 19:47 | 55.62898 | -3.85962 | 8334 ft | 230 kts | 306° |
| 2026-05-05 19:47 | 55.64059 | -3.87897 | 7915 ft | 232 kts | 327° |
| 2026-05-05 19:47 | 55.65453 | -3.89374 | 7504 ft | 235 kts | 329° |
| 2026-05-05 19:48 | 55.66879 | -3.90795 | 7148 ft | 234 kts | 329° |
| 2026-05-05 19:48 | 55.68263 | -3.92156 | 7105 ft | 222 kts | 330° |
| 2026-05-05 19:48 | 55.69574 | -3.93763 | 7115 ft | 235 kts | 314° |
| 2026-05-05 19:48 | 55.70464 | -3.96197 | 7088 ft | 240 kts | 290° |
| 2026-05-05 19:49 | 55.70911 | -3.99042 | 6863 ft | 239 kts | 287° |
| 2026-05-05 19:49 | 55.71242 | -4.00937 | 6752 ft | 238 kts | 289° |
| 2026-05-05 19:49 | 55.71950 | -4.04617 | 6561 ft | 238 kts | 290° |
| 2026-05-05 19:49 | 55.72492 | -4.07391 | 6406 ft | 238 kts | 290° |
| 2026-05-05 19:50 | 55.73032 | -4.10175 | 6258 ft | 239 kts | 290° |
| 2026-05-05 19:50 | 55.73568 | -4.12973 | 6120 ft | 240 kts | 289° |
| 2026-05-05 19:50 | 55.74097 | -4.15778 | 5968 ft | 240 kts | 289° |
| 2026-05-05 19:50 | 55.74623 | -4.18596 | 5759 ft | 240 kts | 289° |
| 2026-05-05 19:51 | 55.75144 | -4.21422 | 5582 ft | 241 kts | 289° |
| 2026-05-05 19:51 | 55.75664 | -4.24252 | 5448 ft | 242 kts | 289° |
| 2026-05-05 19:51 | 55.76185 | -4.27090 | 5287 ft | 242 kts | 289° |
| 2026-05-05 19:51 | 55.76708 | -4.29934 | 5143 ft | 242 kts | 289° |
| 2026-05-05 19:52 | 55.77230 | -4.32781 | 4999 ft | 242 kts | 289° |
| 2026-05-05 19:52 | 55.77752 | -4.35628 | 4848 ft | 243 kts | 289° |
| 2026-05-05 19:52 | 55.78273 | -4.38488 | 4709 ft | 244 kts | 289° |
| 2026-05-05 19:52 | 55.78795 | -4.41364 | 4559 ft | 245 kts | 289° |
| 2026-05-05 19:53 | 55.79320 | -4.44251 | 4401 ft | 246 kts | 288° |
| 2026-05-05 19:53 | 55.79500 | -4.47259 | 4066 ft | 247 kts | 259° |
| 2026-05-05 19:53 | 55.78831 | -4.49985 | 4005 ft | 247 kts | 230° |
| 2026-05-05 19:53 | 55.77484 | -4.51837 | 3853 ft | 237 kts | 199° |
| 2026-05-05 19:54 | 55.75979 | -4.52732 | 3727 ft | 229 kts | 197° |
| 2026-05-05 19:54 | 55.74505 | -4.53782 | 3592 ft | 228 kts | 200° |
| 2026-05-05 19:54 | 55.73053 | -4.54906 | 3450 ft | 227 kts | 201° |
| 2026-05-05 19:54 | 55.71606 | -4.56039 | 3317 ft | 227 kts | 200° |
| 2026-05-05 19:55 | 55.70186 | -4.57142 | 3211 ft | 218 kts | 200° |
| 2026-05-05 19:55 | 55.68833 | -4.58204 | 3137 ft | 208 kts | 204° |
| 2026-05-05 19:55 | 55.67701 | -4.59778 | 3079 ft | 208 kts | 227° |
| 2026-05-05 19:55 | 55.66971 | -4.61985 | 3040 ft | 210 kts | 250° |
| 2026-05-05 19:56 | 55.66743 | -4.64535 | 2990 ft | 212 kts | 272° |
| 2026-05-05 19:56 | 55.67056 | -4.67065 | 2945 ft | 210 kts | 295° |
| 2026-05-05 19:56 | 55.67856 | -4.69186 | 2892 ft | 206 kts | 318° |
| 2026-05-05 19:56 | 55.69015 | -4.70617 | 2847 ft | 202 kts | 340° |
| 2026-05-05 19:57 | 55.70361 | -4.71220 | 2804 ft | 199 kts | 2° |
| 2026-05-05 19:57 | 55.71268 | -4.71135 | 2773 ft | 195 kts | 15° |
| 2026-05-05 19:57 | 55.72871 | -4.69864 | 2722 ft | 187 kts | 45° |
| 2026-05-05 19:57 | 55.73780 | -4.68238 | 2688 ft | 185 kts | 50° |
| 2026-05-05 19:58 | 55.74667 | -4.66597 | 2644 ft | 185 kts | 50° |
| 2026-05-05 19:58 | 55.75558 | -4.64950 | 2609 ft | 185 kts | 50° |
| 2026-05-05 19:58 | 55.76447 | -4.63305 | 2551 ft | 184 kts | 50° |
| 2026-05-05 19:58 | 55.77332 | -4.61667 | 2470 ft | 184 kts | 50° |
| 2026-05-05 19:59 | 55.78215 | -4.60030 | 2383 ft | 184 kts | 50° |
| 2026-05-05 19:59 | 55.79095 | -4.58398 | 2185 ft | 182 kts | 50° |
| 2026-05-05 19:59 | 55.79971 | -4.56773 | 1968 ft | 180 kts | 49° |
| 2026-05-05 19:59 | 55.80814 | -4.55210 | 1716 ft | 168 kts | 50° |
| 2026-05-05 20:00 | 55.81594 | -4.53763 | 1483 ft | 156 kts | 50° |
| 2026-05-05 20:00 | 55.82301 | -4.52450 | 1259 ft | 144 kts | 50° |
| 2026-05-05 20:00 | 55.82969 | -4.51206 | 1064 ft | 136 kts | 50° |
| 2026-05-05 20:00 | 55.83611 | -4.50011 | 859 ft | 132 kts | 50° |
| 2026-05-05 20:01 | 55.84243 | -4.48832 | 673 ft | 132 kts | 49° |
| 2026-05-05 20:01 | 55.84871 | -4.47659 | 484 ft | 131 kts | 48° |
| 2026-05-05 20:01 | 55.85506 | -4.46483 | 314 ft | 131 kts | 49° |
| 2026-05-05 20:01 | 55.86135 | -4.45309 | 147 ft | 130 kts | 49° |
| 2026-05-05 20:02 | 55.86741 | -4.44169 | 45 ft | 117 kts | 50° |
| 2026-05-05 20:02 | 55.87228 | -4.43257 | 31 ft | 80 kts | 45° |
| 2026-05-05 20:02 | 55.87533 | -4.42694 | 31 ft | 49 kts | 47° |
| 2026-05-05 20:02 | 55.87727 | -4.42340 | 31 ft | 33 kts | 42° |
| 2026-05-05 20:03 | 55.87844 | -4.42115 | 31 ft | 23 kts | 46° |
| 2026-05-05 20:03 | 55.87920 | -4.41934 | 31 ft | 10 kts | 86° |
| 2026-05-05 20:03 | 55.87870 | -4.41853 | 31 ft | 11 kts | 172° |
| 2026-05-05 20:03 | 55.87793 | -4.41872 | 30 ft | 11 kts | 207° |
| 2026-05-05 20:04 | 55.87737 | -4.41943 | 31 ft | 9 kts | 222° |
| 2026-05-05 20:04 | 55.87695 | -4.42024 | 31 ft | 9 kts | 228° |
| 2026-05-05 20:04 | 55.87654 | -4.42098 | 31 ft | 8 kts | 225° |
| 2026-05-05 20:04 | 55.87615 | -4.42165 | 31 ft | 10 kts | 225° |
| 2026-05-05 20:05 | 55.87546 | -4.42292 | 31 ft | 19 kts | 227° |
| 2026-05-05 20:05 | 55.87458 | -4.42459 | 31 ft | 17 kts | 226° |
| 2026-05-05 20:05 | 55.87374 | -4.42600 | 31 ft | 16 kts | 210° |
| 2026-05-05 20:05 | 55.87276 | -4.42671 | 31 ft | 15 kts | 199° |
| 2026-05-05 20:06 | 55.87184 | -4.42728 | 30 ft | 13 kts | 199° |
| 2026-05-05 20:06 | 55.87102 | -4.42784 | 31 ft | 12 kts | 201° |
| 2026-05-05 20:06 | 55.87023 | -4.42836 | 31 ft | 13 kts | 199° |
| 2026-05-05 20:06 | 55.86934 | -4.42905 | 29 ft | 15 kts | 207° |
| 2026-05-05 20:07 | 55.86854 | -4.43008 | 31 ft | 14 kts | 239° |
| 2026-05-05 20:07 | 55.86826 | -4.43165 | 31 ft | 13 kts | 253° |
| 2026-05-05 20:07 | 55.86779 | -4.43284 | 31 ft | 12 kts | 192° |
| 2026-05-05 20:07 | 55.86711 | -4.43258 | 31 ft | 6 kts | 165° |
| 2026-05-05 20:08 | 55.86682 | -4.43292 | 31 ft | 5 kts | 242° |
| 2026-05-05 20:08 | 55.86678 | -4.43313 | 31 ft | 1 kts | 250° |
| 2026-05-05 20:08 | 55.86675 | -4.43328 | 31 ft | 1 kts | 252° |
| 2026-05-05 20:08 | 55.86673 | -4.43340 | 30 ft | 0 kts | 253° |